sensor_id;sensor_type;location;lat;lon;timestamp;P1;durP1;ratioP1;P2;durP2;ratioP2
55692;SDS011;41590;53.366;5.212;2023-07-09T00:01:28;11.25;;;8.02;;
55692;SDS011;41590;53.366;5.212;2023-07-09T00:06:34;8.95;;;7.90;;
55692;SDS011;41590;53.366;5.212;2023-07-09T00:09:12;8.95;;;7.70;;
55692;SDS011;41590;53.366;5.212;2023-07-09T00:11:45;10.15;;;8.40;;
55692;SDS011;41590;53.366;5.212;2023-07-09T00:22:26;10.25;;;8.25;;
55692;SDS011;41590;53.366;5.212;2023-07-09T00:25:13;13.27;;;7.95;;
55692;SDS011;41590;53.366;5.212;2023-07-09T00:27:42;9.10;;;7.45;;
55692;SDS011;41590;53.366;5.212;2023-07-09T00:30:15;9.45;;;7.95;;
55692;SDS011;41590;53.366;5.212;2023-07-09T00:32:45;11.27;;;8.23;;
55692;SDS011;41590;53.366;5.212;2023-07-09T00:35:13;11.23;;;7.85;;
55692;SDS011;41590;53.366;5.212;2023-07-09T00:37:49;9.65;;;8.20;;
55692;SDS011;41590;53.366;5.212;2023-07-09T00:40:17;11.40;;;8.18;;
55692;SDS011;41590;53.366;5.212;2023-07-09T00:42:48;8.70;;;7.78;;
55692;SDS011;41590;53.366;5.212;2023-07-09T00:45:24;9.35;;;8.15;;
55692;SDS011;41590;53.366;5.212;2023-07-09T00:48:05;11.40;;;8.70;;
55692;SDS011;41590;53.366;5.212;2023-07-09T00:58:04;12.93;;;8.15;;
55692;SDS011;41590;53.366;5.212;2023-07-09T01:00:33;10.60;;;8.80;;
55692;SDS011;41590;53.366;5.212;2023-07-09T01:03:14;13.90;;;8.70;;
55692;SDS011;41590;53.366;5.212;2023-07-09T01:05:49;12.38;;;8.23;;
55692;SDS011;41590;53.366;5.212;2023-07-09T01:08:18;12.43;;;8.40;;
55692;SDS011;41590;53.366;5.212;2023-07-09T01:10:48;11.15;;;8.52;;
55692;SDS011;41590;53.366;5.212;2023-07-09T01:13:20;12.05;;;8.18;;
55692;SDS011;41590;53.366;5.212;2023-07-09T01:18:28;11.60;;;8.75;;
55692;SDS011;41590;53.366;5.212;2023-07-09T01:21:13;10.82;;;8.95;;
55692;SDS011;41590;53.366;5.212;2023-07-09T01:23:48;10.77;;;9.13;;
55692;SDS011;41590;53.366;5.212;2023-07-09T01:28:49;12.30;;;9.23;;
55692;SDS011;41590;53.366;5.212;2023-07-09T01:31:17;11.52;;;9.20;;
55692;SDS011;41590;53.366;5.212;2023-07-09T01:33:45;17.17;;;9.45;;
55692;SDS011;41590;53.366;5.212;2023-07-09T01:39:06;16.65;;;9.50;;
55692;SDS011;41590;53.366;5.212;2023-07-09T01:41:32;12.00;;;9.27;;
55692;SDS011;41590;53.366;5.212;2023-07-09T01:44:01;12.25;;;9.63;;
55692;SDS011;41590;53.366;5.212;2023-07-09T01:49:26;11.95;;;9.25;;
55692;SDS011;41590;53.366;5.212;2023-07-09T01:51:57;12.45;;;9.25;;
55692;SDS011;41590;53.366;5.212;2023-07-09T01:54:24;14.43;;;10.02;;
55692;SDS011;41590;53.366;5.212;2023-07-09T01:56:52;11.27;;;9.82;;
55692;SDS011;41590;53.366;5.212;2023-07-09T01:59:23;14.55;;;9.68;;
55692;SDS011;41590;53.366;5.212;2023-07-09T02:01:53;12.20;;;10.05;;
55692;SDS011;41590;53.366;5.212;2023-07-09T02:04:26;16.63;;;10.48;;
55692;SDS011;41590;53.366;5.212;2023-07-09T02:06:59;13.60;;;9.60;;
55692;SDS011;41590;53.366;5.212;2023-07-09T02:09:25;13.10;;;10.30;;
55692;SDS011;41590;53.366;5.212;2023-07-09T02:14:23;13.80;;;9.73;;
55692;SDS011;41590;53.366;5.212;2023-07-09T02:16:50;11.88;;;10.55;;
55692;SDS011;41590;53.366;5.212;2023-07-09T02:19:16;13.60;;;10.32;;
55692;SDS011;41590;53.366;5.212;2023-07-09T02:27:07;14.82;;;10.68;;
55692;SDS011;41590;53.366;5.212;2023-07-09T02:29:36;14.95;;;11.52;;
55692;SDS011;41590;53.366;5.212;2023-07-09T02:32:04;15.45;;;11.20;;
55692;SDS011;41590;53.366;5.212;2023-07-09T02:34:32;12.48;;;10.52;;
55692;SDS011;41590;53.366;5.212;2023-07-09T02:37:00;12.48;;;11.05;;
55692;SDS011;41590;53.366;5.212;2023-07-09T02:41:55;13.90;;;11.27;;
55692;SDS011;41590;53.366;5.212;2023-07-09T02:44:23;17.25;;;11.43;;
55692;SDS011;41590;53.366;5.212;2023-07-09T02:46:53;16.58;;;10.77;;
55692;SDS011;41590;53.366;5.212;2023-07-09T02:49:25;16.40;;;12.00;;
55692;SDS011;41590;53.366;5.212;2023-07-09T02:51:51;16.15;;;12.52;;
55692;SDS011;41590;53.366;5.212;2023-07-09T02:54:17;15.57;;;12.00;;
55692;SDS011;41590;53.366;5.212;2023-07-09T02:56:45;14.55;;;11.30;;
55692;SDS011;41590;53.366;5.212;2023-07-09T02:59:13;13.48;;;10.88;;
55692;SDS011;41590;53.366;5.212;2023-07-09T03:01:39;18.35;;;11.45;;
55692;SDS011;41590;53.366;5.212;2023-07-09T03:06:38;16.40;;;11.17;;
55692;SDS011;41590;53.366;5.212;2023-07-09T03:09:08;15.98;;;12.25;;
55692;SDS011;41590;53.366;5.212;2023-07-09T03:11:36;18.83;;;11.98;;
55692;SDS011;41590;53.366;5.212;2023-07-09T03:14:03;18.80;;;11.85;;
55692;SDS011;41590;53.366;5.212;2023-07-09T03:19:02;17.13;;;12.70;;
55692;SDS011;41590;53.366;5.212;2023-07-09T03:21:31;13.88;;;12.38;;
55692;SDS011;41590;53.366;5.212;2023-07-09T03:26:31;15.45;;;11.95;;
55692;SDS011;41590;53.366;5.212;2023-07-09T03:28:57;16.77;;;12.07;;
55692;SDS011;41590;53.366;5.212;2023-07-09T03:31:24;17.33;;;12.55;;
55692;SDS011;41590;53.366;5.212;2023-07-09T03:33:51;16.50;;;13.05;;
55692;SDS011;41590;53.366;5.212;2023-07-09T03:36:17;17.38;;;12.18;;
55692;SDS011;41590;53.366;5.212;2023-07-09T03:41:32;16.55;;;11.93;;
55692;SDS011;41590;53.366;5.212;2023-07-09T03:43:59;16.23;;;12.02;;
55692;SDS011;41590;53.366;5.212;2023-07-09T03:46:29;16.92;;;12.10;;
55692;SDS011;41590;53.366;5.212;2023-07-09T03:48:57;17.98;;;13.60;;
55692;SDS011;41590;53.366;5.212;2023-07-09T03:51:27;15.98;;;12.27;;
55692;SDS011;41590;53.366;5.212;2023-07-09T03:56:23;15.93;;;12.88;;
55692;SDS011;41590;53.366;5.212;2023-07-09T03:58:51;17.40;;;13.10;;
55692;SDS011;41590;53.366;5.212;2023-07-09T04:01:18;18.67;;;13.07;;
55692;SDS011;41590;53.366;5.212;2023-07-09T04:03:44;18.27;;;12.43;;
55692;SDS011;41590;53.366;5.212;2023-07-09T04:06:12;17.58;;;12.25;;
55692;SDS011;41590;53.366;5.212;2023-07-09T04:08:39;15.55;;;12.50;;
55692;SDS011;41590;53.366;5.212;2023-07-09T04:13:36;16.17;;;12.48;;
55692;SDS011;41590;53.366;5.212;2023-07-09T04:16:04;18.00;;;14.00;;
55692;SDS011;41590;53.366;5.212;2023-07-09T04:18:33;16.70;;;11.93;;
55692;SDS011;41590;53.366;5.212;2023-07-09T04:21:08;15.27;;;12.23;;
55692;SDS011;41590;53.366;5.212;2023-07-09T04:26:07;18.35;;;13.77;;
55692;SDS011;41590;53.366;5.212;2023-07-09T04:28:35;15.75;;;13.10;;
55692;SDS011;41590;53.366;5.212;2023-07-09T04:31:01;17.23;;;12.95;;
55692;SDS011;41590;53.366;5.212;2023-07-09T04:36:15;18.10;;;12.75;;
55692;SDS011;41590;53.366;5.212;2023-07-09T04:47:00;17.00;;;11.75;;
55692;SDS011;41590;53.366;5.212;2023-07-09T04:49:26;15.15;;;11.77;;
55692;SDS011;41590;53.366;5.212;2023-07-09T04:57:12;17.10;;;12.00;;
55692;SDS011;41590;53.366;5.212;2023-07-09T04:59:39;13.60;;;10.90;;
55692;SDS011;41590;53.366;5.212;2023-07-09T05:02:07;15.75;;;11.98;;
55692;SDS011;41590;53.366;5.212;2023-07-09T05:04:33;16.27;;;11.75;;
55692;SDS011;41590;53.366;5.212;2023-07-09T05:07:01;18.02;;;12.93;;
55692;SDS011;41590;53.366;5.212;2023-07-09T05:09:28;15.90;;;12.55;;
55692;SDS011;41590;53.366;5.212;2023-07-09T05:11:56;17.50;;;12.85;;
55692;SDS011;41590;53.366;5.212;2023-07-09T05:14:31;23.02;;;13.80;;
55692;SDS011;41590;53.366;5.212;2023-07-09T05:16:57;20.83;;;14.52;;
55692;SDS011;41590;53.366;5.212;2023-07-09T05:19:30;19.67;;;14.00;;
55692;SDS011;41590;53.366;5.212;2023-07-09T05:21:59;21.10;;;15.35;;
55692;SDS011;41590;53.366;5.212;2023-07-09T05:26:54;23.15;;;16.98;;
55692;SDS011;41590;53.366;5.212;2023-07-09T05:29:21;25.17;;;17.40;;
55692;SDS011;41590;53.366;5.212;2023-07-09T05:31:47;27.38;;;18.92;;
55692;SDS011;41590;53.366;5.212;2023-07-09T05:34:16;24.38;;;19.08;;
55692;SDS011;41590;53.366;5.212;2023-07-09T05:36:44;24.40;;;19.90;;
55692;SDS011;41590;53.366;5.212;2023-07-09T05:39:17;23.80;;;19.42;;
55692;SDS011;41590;53.366;5.212;2023-07-09T05:41:44;25.42;;;19.38;;
55692;SDS011;41590;53.366;5.212;2023-07-09T05:44:12;27.48;;;20.17;;
55692;SDS011;41590;53.366;5.212;2023-07-09T05:49:08;22.23;;;19.02;;
55692;SDS011;41590;53.366;5.212;2023-07-09T05:51:35;25.33;;;19.20;;
55692;SDS011;41590;53.366;5.212;2023-07-09T05:54:01;23.05;;;18.90;;
55692;SDS011;41590;53.366;5.212;2023-07-09T05:56:29;21.17;;;18.20;;
55692;SDS011;41590;53.366;5.212;2023-07-09T05:59:03;21.33;;;18.90;;
55692;SDS011;41590;53.366;5.212;2023-07-09T06:01:32;24.15;;;19.05;;
55692;SDS011;41590;53.366;5.212;2023-07-09T06:03:58;25.02;;;19.20;;
55692;SDS011;41590;53.366;5.212;2023-07-09T06:08:59;23.63;;;20.17;;
55692;SDS011;41590;53.366;5.212;2023-07-09T06:13:54;23.52;;;17.33;;
55692;SDS011;41590;53.366;5.212;2023-07-09T06:18:52;22.63;;;15.73;;
55692;SDS011;41590;53.366;5.212;2023-07-09T06:21:18;20.10;;;15.70;;
55692;SDS011;41590;53.366;5.212;2023-07-09T06:23:46;19.63;;;13.50;;
55692;SDS011;41590;53.366;5.212;2023-07-09T06:26:12;21.35;;;14.52;;
55692;SDS011;41590;53.366;5.212;2023-07-09T06:28:39;18.20;;;13.13;;
55692;SDS011;41590;53.366;5.212;2023-07-09T06:31:05;16.70;;;11.27;;
55692;SDS011;41590;53.366;5.212;2023-07-09T06:33:31;15.40;;;11.43;;
55692;SDS011;41590;53.366;5.212;2023-07-09T06:36:00;19.20;;;12.13;;
55692;SDS011;41590;53.366;5.212;2023-07-09T06:38:27;18.63;;;11.40;;
55692;SDS011;41590;53.366;5.212;2023-07-09T06:40:57;17.52;;;11.57;;
55692;SDS011;41590;53.366;5.212;2023-07-09T06:43:23;19.70;;;11.93;;
55692;SDS011;41590;53.366;5.212;2023-07-09T06:45:54;16.83;;;10.93;;
55692;SDS011;41590;53.366;5.212;2023-07-09T06:48:21;15.63;;;11.75;;
55692;SDS011;41590;53.366;5.212;2023-07-09T06:50:48;21.17;;;12.02;;
55692;SDS011;41590;53.366;5.212;2023-07-09T06:53:14;18.45;;;11.07;;
55692;SDS011;41590;53.366;5.212;2023-07-09T06:55:41;19.70;;;11.63;;
55692;SDS011;41590;53.366;5.212;2023-07-09T06:58:07;17.45;;;10.70;;
55692;SDS011;41590;53.366;5.212;2023-07-09T07:00:35;18.35;;;11.85;;
55692;SDS011;41590;53.366;5.212;2023-07-09T07:03:02;12.98;;;11.02;;
55692;SDS011;41590;53.366;5.212;2023-07-09T07:05:30;18.98;;;10.77;;
55692;SDS011;41590;53.366;5.212;2023-07-09T07:17:07;16.38;;;10.50;;
55692;SDS011;41590;53.366;5.212;2023-07-09T07:19:34;15.02;;;9.32;;
55692;SDS011;41590;53.366;5.212;2023-07-09T07:22:01;15.13;;;10.20;;
55692;SDS011;41590;53.366;5.212;2023-07-09T07:24:27;11.98;;;8.98;;
55692;SDS011;41590;53.366;5.212;2023-07-09T07:26:53;14.85;;;10.00;;
55692;SDS011;41590;53.366;5.212;2023-07-09T07:29:20;14.27;;;9.27;;
55692;SDS011;41590;53.366;5.212;2023-07-09T07:31:46;15.55;;;9.27;;
55692;SDS011;41590;53.366;5.212;2023-07-09T07:34:12;14.75;;;9.15;;
55692;SDS011;41590;53.366;5.212;2023-07-09T07:36:38;13.02;;;9.30;;
55692;SDS011;41590;53.366;5.212;2023-07-09T07:39:05;13.40;;;8.75;;
55692;SDS011;41590;53.366;5.212;2023-07-09T07:44:02;12.65;;;8.82;;
55692;SDS011;41590;53.366;5.212;2023-07-09T07:46:28;10.90;;;8.75;;
55692;SDS011;41590;53.366;5.212;2023-07-09T07:49:00;12.80;;;8.43;;
55692;SDS011;41590;53.366;5.212;2023-07-09T07:51:26;12.48;;;8.65;;
55692;SDS011;41590;53.366;5.212;2023-07-09T07:53:55;15.40;;;8.88;;
55692;SDS011;41590;53.366;5.212;2023-07-09T07:59:06;11.35;;;7.63;;
55692;SDS011;41590;53.366;5.212;2023-07-09T08:01:35;14.20;;;7.28;;
55692;SDS011;41590;53.366;5.212;2023-07-09T08:04:01;11.05;;;6.72;;
55692;SDS011;41590;53.366;5.212;2023-07-09T08:06:28;12.25;;;7.32;;
55692;SDS011;41590;53.366;5.212;2023-07-09T08:08:59;8.98;;;6.13;;
55692;SDS011;41590;53.366;5.212;2023-07-09T08:11:25;10.32;;;6.68;;
55692;SDS011;41590;53.366;5.212;2023-07-09T08:13:58;11.55;;;6.68;;
55692;SDS011;41590;53.366;5.212;2023-07-09T08:22:17;10.77;;;6.18;;
55692;SDS011;41590;53.366;5.212;2023-07-09T08:24:52;10.82;;;6.00;;
55692;SDS011;41590;53.366;5.212;2023-07-09T08:27:29;9.48;;;5.88;;
55692;SDS011;41590;53.366;5.212;2023-07-09T08:30:04;8.32;;;5.65;;
55692;SDS011;41590;53.366;5.212;2023-07-09T08:32:44;12.65;;;5.95;;
55692;SDS011;41590;53.366;5.212;2023-07-09T08:35:10;12.02;;;5.75;;
55692;SDS011;41590;53.366;5.212;2023-07-09T08:49:14;10.32;;;5.55;;
55692;SDS011;41590;53.366;5.212;2023-07-09T08:54:49;8.98;;;5.80;;
55692;SDS011;41590;53.366;5.212;2023-07-09T08:57:29;12.52;;;5.40;;
55692;SDS011;41590;53.366;5.212;2023-07-09T09:02:52;9.43;;;5.40;;
55692;SDS011;41590;53.366;5.212;2023-07-09T09:05:31;10.93;;;5.03;;
55692;SDS011;41590;53.366;5.212;2023-07-09T09:10:46;10.75;;;4.72;;
55692;SDS011;41590;53.366;5.212;2023-07-09T09:13:14;8.73;;;4.95;;
55692;SDS011;41590;53.366;5.212;2023-07-09T09:15:43;7.78;;;4.57;;
55692;SDS011;41590;53.366;5.212;2023-07-09T09:18:25;9.80;;;4.50;;
55692;SDS011;41590;53.366;5.212;2023-07-09T09:20:53;9.43;;;4.25;;
55692;SDS011;41590;53.366;5.212;2023-07-09T09:23:25;9.10;;;4.13;;
55692;SDS011;41590;53.366;5.212;2023-07-09T09:25:53;13.45;;;4.50;;
55692;SDS011;41590;53.366;5.212;2023-07-09T09:28:26;9.60;;;4.43;;
55692;SDS011;41590;53.366;5.212;2023-07-09T09:30:53;8.43;;;4.50;;
55692;SDS011;41590;53.366;5.212;2023-07-09T09:33:23;8.07;;;3.83;;
55692;SDS011;41590;53.366;5.212;2023-07-09T09:35:49;9.85;;;4.28;;
55692;SDS011;41590;53.366;5.212;2023-07-09T09:38:20;6.40;;;3.70;;
55692;SDS011;41590;53.366;5.212;2023-07-09T09:43:20;8.65;;;3.88;;
55692;SDS011;41590;53.366;5.212;2023-07-09T09:45:58;7.03;;;3.80;;
55692;SDS011;41590;53.366;5.212;2023-07-09T09:48:30;6.72;;;3.85;;
55692;SDS011;41590;53.366;5.212;2023-07-09T09:50:57;6.55;;;3.63;;
55692;SDS011;41590;53.366;5.212;2023-07-09T09:53:26;8.68;;;4.07;;
55692;SDS011;41590;53.366;5.212;2023-07-09T09:55:55;5.97;;;3.28;;
55692;SDS011;41590;53.366;5.212;2023-07-09T10:00:57;6.97;;;3.75;;
55692;SDS011;41590;53.366;5.212;2023-07-09T10:03:40;11.00;;;3.53;;
55692;SDS011;41590;53.366;5.212;2023-07-09T10:06:33;5.18;;;3.25;;
55692;SDS011;41590;53.366;5.212;2023-07-09T10:11:53;5.82;;;3.38;;
55692;SDS011;41590;53.366;5.212;2023-07-09T10:14:30;5.75;;;3.38;;
55692;SDS011;41590;53.366;5.212;2023-07-09T10:17:02;4.97;;;3.28;;
55692;SDS011;41590;53.366;5.212;2023-07-09T10:19:53;6.57;;;3.33;;
55692;SDS011;41590;53.366;5.212;2023-07-09T10:30:30;7.70;;;3.40;;
55692;SDS011;41590;53.366;5.212;2023-07-09T10:39:12;9.07;;;4.15;;
55692;SDS011;41590;53.366;5.212;2023-07-09T10:46:37;5.80;;;3.17;;
55692;SDS011;41590;53.366;5.212;2023-07-09T10:49:11;6.97;;;3.40;;
55692;SDS011;41590;53.366;5.212;2023-07-09T10:51:46;5.43;;;3.40;;
55692;SDS011;41590;53.366;5.212;2023-07-09T10:54:18;6.47;;;3.13;;
55692;SDS011;41590;53.366;5.212;2023-07-09T10:56:48;5.15;;;2.85;;
55692;SDS011;41590;53.366;5.212;2023-07-09T10:59:20;4.50;;;3.15;;
55692;SDS011;41590;53.366;5.212;2023-07-09T11:01:52;7.32;;;2.85;;
55692;SDS011;41590;53.366;5.212;2023-07-09T11:04:34;4.82;;;3.00;;
55692;SDS011;41590;53.366;5.212;2023-07-09T11:12:39;12.57;;;4.10;;
55692;SDS011;41590;53.366;5.212;2023-07-09T11:18:10;6.40;;;3.10;;
55692;SDS011;41590;53.366;5.212;2023-07-09T11:23:06;5.13;;;2.58;;
55692;SDS011;41590;53.366;5.212;2023-07-09T11:25:44;4.10;;;2.50;;
55692;SDS011;41590;53.366;5.212;2023-07-09T11:28:11;6.13;;;2.92;;
55692;SDS011;41590;53.366;5.212;2023-07-09T11:30:54;4.60;;;2.65;;
55692;SDS011;41590;53.366;5.212;2023-07-09T11:33:26;4.65;;;2.83;;
55692;SDS011;41590;53.366;5.212;2023-07-09T11:36:11;4.63;;;2.65;;
55692;SDS011;41590;53.366;5.212;2023-07-09T11:38:39;5.93;;;2.53;;
55692;SDS011;41590;53.366;5.212;2023-07-09T11:55:52;7.75;;;3.03;;
55692;SDS011;41590;53.366;5.212;2023-07-09T12:01:09;5.70;;;2.60;;
55692;SDS011;41590;53.366;5.212;2023-07-09T12:03:44;6.25;;;2.78;;
55692;SDS011;41590;53.366;5.212;2023-07-09T12:09:30;6.05;;;2.50;;
55692;SDS011;41590;53.366;5.212;2023-07-09T12:11:56;6.22;;;2.72;;
55692;SDS011;41590;53.366;5.212;2023-07-09T12:20:05;9.73;;;3.20;;
55692;SDS011;41590;53.366;5.212;2023-07-09T12:25:46;9.90;;;3.30;;
55692;SDS011;41590;53.366;5.212;2023-07-09T12:31:25;6.88;;;3.45;;
55692;SDS011;41590;53.366;5.212;2023-07-09T12:33:54;5.30;;;2.75;;
55692;SDS011;41590;53.366;5.212;2023-07-09T12:36:23;13.38;;;3.53;;
55692;SDS011;41590;53.366;5.212;2023-07-09T12:38:50;7.50;;;2.75;;
55692;SDS011;41590;53.366;5.212;2023-07-09T12:43:58;7.13;;;2.95;;
55692;SDS011;41590;53.366;5.212;2023-07-09T12:46:28;5.20;;;2.80;;
55692;SDS011;41590;53.366;5.212;2023-07-09T12:49:04;6.18;;;2.75;;
55692;SDS011;41590;53.366;5.212;2023-07-09T12:51:38;5.32;;;3.03;;
55692;SDS011;41590;53.366;5.212;2023-07-09T13:14:03;5.57;;;2.70;;
55692;SDS011;41590;53.366;5.212;2023-07-09T13:20:07;6.43;;;2.80;;
55692;SDS011;41590;53.366;5.212;2023-07-09T13:22:45;5.95;;;3.00;;
55692;SDS011;41590;53.366;5.212;2023-07-09T13:25:21;6.32;;;3.17;;
55692;SDS011;41590;53.366;5.212;2023-07-09T13:27:54;8.68;;;3.00;;
55692;SDS011;41590;53.366;5.212;2023-07-09T13:30:27;7.38;;;2.72;;
55692;SDS011;41590;53.366;5.212;2023-07-09T13:33:00;11.63;;;3.25;;
55692;SDS011;41590;53.366;5.212;2023-07-09T13:35:27;10.35;;;3.40;;
55692;SDS011;41590;53.366;5.212;2023-07-09T13:41:31;6.32;;;3.25;;
55692;SDS011;41590;53.366;5.212;2023-07-09T13:43:59;7.28;;;2.92;;
55692;SDS011;41590;53.366;5.212;2023-07-09T13:46:33;7.63;;;3.50;;
55692;SDS011;41590;53.366;5.212;2023-07-09T13:58:00;12.07;;;3.78;;
55692;SDS011;41590;53.366;5.212;2023-07-09T14:04:01;19.30;;;4.60;;
55692;SDS011;41590;53.366;5.212;2023-07-09T14:09:53;11.85;;;4.85;;
55692;SDS011;41590;53.366;5.212;2023-07-09T14:18:54;16.63;;;9.98;;
55692;SDS011;41590;53.366;5.212;2023-07-09T14:21:24;17.08;;;10.75;;
55692;SDS011;41590;53.366;5.212;2023-07-09T14:27:13;23.08;;;11.80;;
55692;SDS011;41590;53.366;5.212;2023-07-09T14:29:51;18.98;;;10.27;;
55692;SDS011;41590;53.366;5.212;2023-07-09T14:35:27;23.45;;;9.73;;
55692;SDS011;41590;53.366;5.212;2023-07-09T14:47:50;22.45;;;8.18;;
55692;SDS011;41590;53.366;5.212;2023-07-09T14:50:16;19.23;;;8.35;;
55692;SDS011;41590;53.366;5.212;2023-07-09T14:53:27;18.38;;;9.52;;
55692;SDS011;41590;53.366;5.212;2023-07-09T15:06:03;25.50;;;8.35;;
55692;SDS011;41590;53.366;5.212;2023-07-09T15:12:33;30.08;;;9.35;;
55692;SDS011;41590;53.366;5.212;2023-07-09T15:17:55;32.72;;;9.32;;
55692;SDS011;41590;53.366;5.212;2023-07-09T15:20:22;27.75;;;8.52;;
55692;SDS011;41590;53.366;5.212;2023-07-09T15:26:18;30.73;;;9.18;;
55692;SDS011;41590;53.366;5.212;2023-07-09T15:28:56;33.00;;;8.82;;
55692;SDS011;41590;53.366;5.212;2023-07-09T15:31:22;24.90;;;8.02;;
55692;SDS011;41590;53.366;5.212;2023-07-09T15:37:16;23.73;;;8.55;;
55692;SDS011;41590;53.366;5.212;2023-07-09T15:46:47;30.58;;;8.95;;
55692;SDS011;41590;53.366;5.212;2023-07-09T15:51:52;28.00;;;8.30;;
55692;SDS011;41590;53.366;5.212;2023-07-09T15:54:30;22.45;;;7.45;;
55692;SDS011;41590;53.366;5.212;2023-07-09T15:57:14;28.58;;;8.57;;
55692;SDS011;41590;53.366;5.212;2023-07-09T15:59:43;19.85;;;7.05;;
55692;SDS011;41590;53.366;5.212;2023-07-09T16:02:13;30.08;;;9.35;;
55692;SDS011;41590;53.366;5.212;2023-07-09T16:04:43;23.17;;;8.73;;
55692;SDS011;41590;53.366;5.212;2023-07-09T16:09:46;20.50;;;8.23;;
55692;SDS011;41590;53.366;5.212;2023-07-09T16:12:15;21.73;;;8.50;;
55692;SDS011;41590;53.366;5.212;2023-07-09T16:18:19;24.17;;;9.05;;
55692;SDS011;41590;53.366;5.212;2023-07-09T16:24:33;17.75;;;9.40;;
55692;SDS011;41590;53.366;5.212;2023-07-09T16:27:35;22.48;;;10.35;;
55692;SDS011;41590;53.366;5.212;2023-07-09T16:33:16;21.45;;;10.00;;
55692;SDS011;41590;53.366;5.212;2023-07-09T16:35:52;22.83;;;10.18;;
55692;SDS011;41590;53.366;5.212;2023-07-09T16:38:19;20.52;;;10.30;;
55692;SDS011;41590;53.366;5.212;2023-07-09T16:47:26;25.55;;;11.38;;
55692;SDS011;41590;53.366;5.212;2023-07-09T16:56:54;23.02;;;10.02;;
55692;SDS011;41590;53.366;5.212;2023-07-09T17:38:32;28.90;;;10.38;;
55692;SDS011;41590;53.366;5.212;2023-07-09T17:44:33;27.20;;;10.15;;
55692;SDS011;41590;53.366;5.212;2023-07-09T17:47:03;21.15;;;10.38;;
55692;SDS011;41590;53.366;5.212;2023-07-09T18:00:47;19.55;;;9.77;;
55692;SDS011;41590;53.366;5.212;2023-07-09T18:03:25;23.95;;;10.32;;
55692;SDS011;41590;53.366;5.212;2023-07-09T18:08:35;21.50;;;10.45;;
55692;SDS011;41590;53.366;5.212;2023-07-09T18:13:52;23.60;;;11.35;;
55692;SDS011;41590;53.366;5.212;2023-07-09T18:19:27;17.05;;;10.35;;
55692;SDS011;41590;53.366;5.212;2023-07-09T18:22:00;27.55;;;11.65;;
55692;SDS011;41590;53.366;5.212;2023-07-09T18:24:27;22.85;;;11.25;;
55692;SDS011;41590;53.366;5.212;2023-07-09T18:39:33;26.60;;;11.93;;
55692;SDS011;41590;53.366;5.212;2023-07-09T18:42:02;22.27;;;11.30;;
55692;SDS011;41590;53.366;5.212;2023-07-09T18:47:30;20.95;;;11.30;;
55692;SDS011;41590;53.366;5.212;2023-07-09T19:09:43;20.67;;;10.88;;
55692;SDS011;41590;53.366;5.212;2023-07-09T19:12:10;19.63;;;10.05;;
55692;SDS011;41590;53.366;5.212;2023-07-09T19:17:24;18.65;;;10.10;;
55692;SDS011;41590;53.366;5.212;2023-07-09T19:19:55;19.52;;;10.48;;
55692;SDS011;41590;53.366;5.212;2023-07-09T19:22:21;20.67;;;10.27;;
55692;SDS011;41590;53.366;5.212;2023-07-09T19:24:47;21.25;;;10.77;;
55692;SDS011;41590;53.366;5.212;2023-07-09T19:29:44;21.73;;;9.85;;
55692;SDS011;41590;53.366;5.212;2023-07-09T19:32:23;19.20;;;9.50;;
55692;SDS011;41590;53.366;5.212;2023-07-09T19:34:52;15.18;;;9.13;;
55692;SDS011;41590;53.366;5.212;2023-07-09T19:37:22;16.92;;;9.35;;
55692;SDS011;41590;53.366;5.212;2023-07-09T19:39:49;16.23;;;10.80;;
55692;SDS011;41590;53.366;5.212;2023-07-09T19:42:16;16.90;;;10.00;;
55692;SDS011;41590;53.366;5.212;2023-07-09T19:44:44;18.80;;;10.27;;
55692;SDS011;41590;53.366;5.212;2023-07-09T19:49:57;18.23;;;11.25;;
55692;SDS011;41590;53.366;5.212;2023-07-09T19:52:25;19.60;;;10.73;;
55692;SDS011;41590;53.366;5.212;2023-07-09T19:55:14;16.13;;;10.55;;
55692;SDS011;41590;53.366;5.212;2023-07-09T20:01:05;17.67;;;9.77;;
55692;SDS011;41590;53.366;5.212;2023-07-09T20:03:45;14.35;;;9.60;;
55692;SDS011;41590;53.366;5.212;2023-07-09T20:06:12;17.42;;;10.13;;
55692;SDS011;41590;53.366;5.212;2023-07-09T20:08:41;17.77;;;10.27;;
55692;SDS011;41590;53.366;5.212;2023-07-09T20:11:11;20.10;;;10.73;;
55692;SDS011;41590;53.366;5.212;2023-07-09T20:13:47;13.77;;;10.27;;
55692;SDS011;41590;53.366;5.212;2023-07-09T20:16:24;17.52;;;9.98;;
55692;SDS011;41590;53.366;5.212;2023-07-09T20:18:51;16.33;;;10.63;;
55692;SDS011;41590;53.366;5.212;2023-07-09T20:23:50;25.73;;;11.63;;
55692;SDS011;41590;53.366;5.212;2023-07-09T20:26:16;18.58;;;11.65;;
55692;SDS011;41590;53.366;5.212;2023-07-09T20:28:43;19.73;;;11.75;;
55692;SDS011;41590;53.366;5.212;2023-07-09T20:31:27;18.65;;;10.50;;
55692;SDS011;41590;53.366;5.212;2023-07-09T20:34:12;20.13;;;11.23;;
55692;SDS011;41590;53.366;5.212;2023-07-09T20:39:13;17.55;;;10.40;;
55692;SDS011;41590;53.366;5.212;2023-07-09T20:45:10;20.45;;;10.80;;
55692;SDS011;41590;53.366;5.212;2023-07-09T20:50:51;16.23;;;10.57;;
55692;SDS011;41590;53.366;5.212;2023-07-09T20:53:21;15.25;;;10.68;;
55692;SDS011;41590;53.366;5.212;2023-07-09T20:55:48;19.40;;;12.05;;
55692;SDS011;41590;53.366;5.212;2023-07-09T21:00:52;17.70;;;11.95;;
55692;SDS011;41590;53.366;5.212;2023-07-09T21:03:25;18.88;;;11.82;;
55692;SDS011;41590;53.366;5.212;2023-07-09T21:05:52;22.65;;;12.57;;
55692;SDS011;41590;53.366;5.212;2023-07-09T21:08:20;26.45;;;15.27;;
55692;SDS011;41590;53.366;5.212;2023-07-09T21:10:47;19.95;;;12.35;;
55692;SDS011;41590;53.366;5.212;2023-07-09T21:13:20;19.40;;;13.18;;
55692;SDS011;41590;53.366;5.212;2023-07-09T21:15:54;18.50;;;12.80;;
55692;SDS011;41590;53.366;5.212;2023-07-09T21:21:09;19.23;;;13.52;;
55692;SDS011;41590;53.366;5.212;2023-07-09T21:26:16;19.77;;;12.48;;
55692;SDS011;41590;53.366;5.212;2023-07-09T21:28:45;20.15;;;14.05;;
55692;SDS011;41590;53.366;5.212;2023-07-09T21:36:18;23.13;;;14.63;;
55692;SDS011;41590;53.366;5.212;2023-07-09T21:43:54;20.35;;;11.93;;
55692;SDS011;41590;53.366;5.212;2023-07-09T21:46:25;23.33;;;10.80;;
55692;SDS011;41590;53.366;5.212;2023-07-09T21:49:04;21.17;;;9.65;;
55692;SDS011;41590;53.366;5.212;2023-07-09T21:51:33;28.05;;;9.18;;
55692;SDS011;41590;53.366;5.212;2023-07-09T21:54:08;18.55;;;7.95;;
55692;SDS011;41590;53.366;5.212;2023-07-09T21:56:35;15.98;;;5.90;;
55692;SDS011;41590;53.366;5.212;2023-07-09T21:59:01;9.48;;;4.63;;
55692;SDS011;41590;53.366;5.212;2023-07-09T22:01:29;11.15;;;4.60;;
55692;SDS011;41590;53.366;5.212;2023-07-09T22:03:55;12.93;;;4.25;;
55692;SDS011;41590;53.366;5.212;2023-07-09T22:06:25;8.57;;;3.30;;
55692;SDS011;41590;53.366;5.212;2023-07-09T22:09:04;9.75;;;3.58;;
55692;SDS011;41590;53.366;5.212;2023-07-09T22:22:50;9.50;;;2.30;;
55692;SDS011;41590;53.366;5.212;2023-07-09T22:34:12;4.57;;;1.90;;
55692;SDS011;41590;53.366;5.212;2023-07-09T22:36:56;3.85;;;1.77;;
55692;SDS011;41590;53.366;5.212;2023-07-09T22:42:25;3.80;;;1.75;;
55692;SDS011;41590;53.366;5.212;2023-07-09T22:45:02;3.30;;;1.50;;
55692;SDS011;41590;53.366;5.212;2023-07-09T22:50:53;13.55;;;3.13;;
55692;SDS011;41590;53.366;5.212;2023-07-09T22:53:29;9.27;;;2.50;;
55692;SDS011;41590;53.366;5.212;2023-07-09T22:56:04;6.15;;;2.20;;
55692;SDS011;41590;53.366;5.212;2023-07-09T22:58:34;4.30;;;2.00;;
55692;SDS011;41590;53.366;5.212;2023-07-09T23:01:13;7.38;;;1.88;;